sensor_id;sensor_type;location;lat;lon;timestamp;P1;durP1;ratioP1;P2;durP2;ratioP2
47433;SDS011;33184;48.774;8.918;2022-11-11T00:03:18;10.53;;;5.37;;
47433;SDS011;33184;48.774;8.918;2022-11-11T00:08:56;8.17;;;4.20;;
47433;SDS011;33184;48.774;8.918;2022-11-11T00:14:35;6.17;;;4.33;;
47433;SDS011;33184;48.774;8.918;2022-11-11T00:20:14;5.93;;;3.97;;
47433;SDS011;33184;48.774;8.918;2022-11-11T00:26:13;10.67;;;5.73;;
47433;SDS011;33184;48.774;8.918;2022-11-11T00:31:52;5.87;;;4.10;;
47433;SDS011;33184;48.774;8.918;2022-11-11T00:37:50;8.43;;;3.77;;
47433;SDS011;33184;48.774;8.918;2022-11-11T00:43:29;9.50;;;4.27;;
47433;SDS011;33184;48.774;8.918;2022-11-11T00:49:08;8.40;;;4.33;;
47433;SDS011;33184;48.774;8.918;2022-11-11T00:55:06;7.33;;;4.83;;
47433;SDS011;33184;48.774;8.918;2022-11-11T01:00:45;4.30;;;3.33;;
47433;SDS011;33184;48.774;8.918;2022-11-11T01:06:24;4.23;;;3.83;;
47433;SDS011;33184;48.774;8.918;2022-11-11T01:12:04;7.97;;;3.67;;
47433;SDS011;33184;48.774;8.918;2022-11-11T01:17:43;10.30;;;4.83;;
47433;SDS011;33184;48.774;8.918;2022-11-11T01:23:22;9.93;;;3.70;;
47433;SDS011;33184;48.774;8.918;2022-11-11T01:29:01;11.80;;;4.40;;
47433;SDS011;33184;48.774;8.918;2022-11-11T01:34:41;7.00;;;4.07;;
47433;SDS011;33184;48.774;8.918;2022-11-11T01:40:20;7.17;;;3.00;;
47433;SDS011;33184;48.774;8.918;2022-11-11T01:46:00;7.73;;;3.80;;
47433;SDS011;33184;48.774;8.918;2022-11-11T01:51:43;5.17;;;3.17;;
47433;SDS011;33184;48.774;8.918;2022-11-11T02:03:09;5.53;;;2.78;;
47433;SDS011;33184;48.774;8.918;2022-11-11T02:08:49;3.70;;;3.10;;
47433;SDS011;33184;48.774;8.918;2022-11-11T02:14:28;4.43;;;2.87;;
47433;SDS011;33184;48.774;8.918;2022-11-11T02:20:24;8.63;;;3.97;;
47433;SDS011;33184;48.774;8.918;2022-11-11T02:26:05;7.07;;;3.17;;
47433;SDS011;33184;48.774;8.918;2022-11-11T02:31:47;8.27;;;3.50;;
47433;SDS011;33184;48.774;8.918;2022-11-11T02:37:26;5.43;;;4.10;;
47433;SDS011;33184;48.774;8.918;2022-11-11T02:43:05;8.00;;;3.93;;
47433;SDS011;33184;48.774;8.918;2022-11-11T02:48:44;6.03;;;3.33;;
47433;SDS011;33184;48.774;8.918;2022-11-11T02:54:23;4.60;;;3.67;;
47433;SDS011;33184;48.774;8.918;2022-11-11T03:00:02;6.30;;;3.40;;
47433;SDS011;33184;48.774;8.918;2022-11-11T03:05:42;4.63;;;3.00;;
47433;SDS011;33184;48.774;8.918;2022-11-11T03:11:21;4.03;;;2.37;;
47433;SDS011;33184;48.774;8.918;2022-11-11T03:17:06;4.80;;;2.87;;
47433;SDS011;33184;48.774;8.918;2022-11-11T03:23:05;4.87;;;2.93;;
47433;SDS011;33184;48.774;8.918;2022-11-11T03:28:49;5.70;;;2.93;;
47433;SDS011;33184;48.774;8.918;2022-11-11T03:34:28;6.03;;;3.60;;
47433;SDS011;33184;48.774;8.918;2022-11-11T03:40:07;3.20;;;2.90;;
47433;SDS011;33184;48.774;8.918;2022-11-11T03:45:46;4.73;;;2.50;;
47433;SDS011;33184;48.774;8.918;2022-11-11T03:51:26;6.80;;;3.57;;
47433;SDS011;33184;48.774;8.918;2022-11-11T03:57:05;5.40;;;2.73;;
47433;SDS011;33184;48.774;8.918;2022-11-11T04:03:04;3.33;;;2.50;;
47433;SDS011;33184;48.774;8.918;2022-11-11T04:09:14;4.23;;;2.77;;
47433;SDS011;33184;48.774;8.918;2022-11-11T04:15:12;3.17;;;2.37;;
47433;SDS011;33184;48.774;8.918;2022-11-11T04:21:09;4.13;;;2.80;;
47433;SDS011;33184;48.774;8.918;2022-11-11T04:27:09;3.90;;;2.67;;
47433;SDS011;33184;48.774;8.918;2022-11-11T04:32:50;6.73;;;2.90;;
47433;SDS011;33184;48.774;8.918;2022-11-11T04:38:29;3.53;;;2.60;;
47433;SDS011;33184;48.774;8.918;2022-11-11T04:44:27;5.27;;;2.30;;
47433;SDS011;33184;48.774;8.918;2022-11-11T04:50:32;6.03;;;3.10;;
47433;SDS011;33184;48.774;8.918;2022-11-11T04:56:13;5.60;;;3.30;;
47433;SDS011;33184;48.774;8.918;2022-11-11T05:02:10;5.13;;;3.40;;
47433;SDS011;33184;48.774;8.918;2022-11-11T05:08:08;7.50;;;2.97;;
47433;SDS011;33184;48.774;8.918;2022-11-11T05:14:06;5.47;;;2.73;;
47433;SDS011;33184;48.774;8.918;2022-11-11T05:20:04;4.70;;;2.73;;
47433;SDS011;33184;48.774;8.918;2022-11-11T05:26:02;4.50;;;3.07;;
47433;SDS011;33184;48.774;8.918;2022-11-11T05:31:41;7.17;;;2.63;;
47433;SDS011;33184;48.774;8.918;2022-11-11T05:37:20;4.03;;;2.53;;
47433;SDS011;33184;48.774;8.918;2022-11-11T05:42:59;5.83;;;2.47;;
47433;SDS011;33184;48.774;8.918;2022-11-11T05:48:38;5.23;;;3.27;;
47433;SDS011;33184;48.774;8.918;2022-11-11T05:54:37;6.43;;;2.80;;
47433;SDS011;33184;48.774;8.918;2022-11-11T06:00:17;3.20;;;2.53;;
47433;SDS011;33184;48.774;8.918;2022-11-11T06:05:57;6.83;;;2.30;;
47433;SDS011;33184;48.774;8.918;2022-11-11T06:11:36;3.43;;;2.70;;
47433;SDS011;33184;48.774;8.918;2022-11-11T06:17:15;3.47;;;2.60;;
47433;SDS011;33184;48.774;8.918;2022-11-11T06:22:54;7.00;;;3.50;;
47433;SDS011;33184;48.774;8.918;2022-11-11T06:28:37;5.97;;;2.47;;
47433;SDS011;33184;48.774;8.918;2022-11-11T06:34:20;5.07;;;2.50;;
47433;SDS011;33184;48.774;8.918;2022-11-11T06:39:59;5.33;;;2.90;;
47433;SDS011;33184;48.774;8.918;2022-11-11T06:45:38;7.20;;;3.40;;
47433;SDS011;33184;48.774;8.918;2022-11-11T06:51:17;9.47;;;4.33;;
47433;SDS011;33184;48.774;8.918;2022-11-11T06:56:56;7.17;;;4.07;;
47433;SDS011;33184;48.774;8.918;2022-11-11T07:02:35;8.80;;;4.50;;
47433;SDS011;33184;48.774;8.918;2022-11-11T07:08:15;6.90;;;5.33;;
47433;SDS011;33184;48.774;8.918;2022-11-11T07:13:55;9.57;;;5.00;;
47433;SDS011;33184;48.774;8.918;2022-11-11T07:19:34;7.10;;;5.30;;
47433;SDS011;33184;48.774;8.918;2022-11-11T07:25:13;9.43;;;5.20;;
47433;SDS011;33184;48.774;8.918;2022-11-11T07:30:52;6.87;;;4.10;;
47433;SDS011;33184;48.774;8.918;2022-11-11T07:36:31;6.37;;;4.53;;
47433;SDS011;33184;48.774;8.918;2022-11-11T07:42:11;10.00;;;4.90;;
47433;SDS011;33184;48.774;8.918;2022-11-11T07:47:50;9.23;;;4.67;;
47433;SDS011;33184;48.774;8.918;2022-11-11T07:53:29;8.30;;;4.57;;
47433;SDS011;33184;48.774;8.918;2022-11-11T07:59:08;11.40;;;6.93;;
47433;SDS011;33184;48.774;8.918;2022-11-11T08:04:47;12.20;;;5.60;;
47433;SDS011;33184;48.774;8.918;2022-11-11T08:10:26;16.17;;;5.43;;
47433;SDS011;33184;48.774;8.918;2022-11-11T08:16:09;7.70;;;4.60;;
47433;SDS011;33184;48.774;8.918;2022-11-11T08:21:50;7.47;;;5.03;;
47433;SDS011;33184;48.774;8.918;2022-11-11T08:27:29;9.37;;;4.20;;
47433;SDS011;33184;48.774;8.918;2022-11-11T08:33:08;6.83;;;4.33;;
47433;SDS011;33184;48.774;8.918;2022-11-11T08:38:48;6.33;;;3.63;;
47433;SDS011;33184;48.774;8.918;2022-11-11T08:44:26;7.33;;;3.60;;
47433;SDS011;33184;48.774;8.918;2022-11-11T08:50:05;7.47;;;3.70;;
47433;SDS011;33184;48.774;8.918;2022-11-11T08:55:45;8.33;;;3.33;;
47433;SDS011;33184;48.774;8.918;2022-11-11T09:01:24;4.70;;;2.43;;
47433;SDS011;33184;48.774;8.918;2022-11-11T09:07:04;3.87;;;2.40;;
47433;SDS011;33184;48.774;8.918;2022-11-11T09:12:44;7.10;;;2.70;;
47433;SDS011;33184;48.774;8.918;2022-11-11T09:18:23;8.20;;;3.53;;
47433;SDS011;33184;48.774;8.918;2022-11-11T09:24:01;5.97;;;2.90;;
47433;SDS011;33184;48.774;8.918;2022-11-11T09:29:41;6.10;;;2.80;;
47433;SDS011;33184;48.774;8.918;2022-11-11T09:35:20;10.83;;;3.80;;
47433;SDS011;33184;48.774;8.918;2022-11-11T09:46:53;6.10;;;3.57;;
47433;SDS011;33184;48.774;8.918;2022-11-11T09:52:45;4.50;;;2.53;;
47433;SDS011;33184;48.774;8.918;2022-11-11T09:58:33;4.93;;;2.13;;
47433;SDS011;33184;48.774;8.918;2022-11-11T10:16:03;11.87;;;3.10;;
47433;SDS011;33184;48.774;8.918;2022-11-11T10:21:52;5.53;;;2.30;;
47433;SDS011;33184;48.774;8.918;2022-11-11T10:27:38;4.53;;;2.13;;
47433;SDS011;33184;48.774;8.918;2022-11-11T10:33:26;4.87;;;2.10;;
47433;SDS011;33184;48.774;8.918;2022-11-11T10:39:10;7.83;;;1.80;;
47433;SDS011;33184;48.774;8.918;2022-11-11T10:44:59;11.27;;;6.78;;
47433;SDS011;33184;48.774;8.918;2022-11-11T10:50:40;9.17;;;2.30;;
47433;SDS011;33184;48.774;8.918;2022-11-11T11:02:25;4.57;;;1.45;;
47433;SDS011;33184;48.774;8.918;2022-11-11T11:08:19;4.20;;;1.98;;
47433;SDS011;33184;48.774;8.918;2022-11-11T11:14:02;6.55;;;1.65;;
47433;SDS011;33184;48.774;8.918;2022-11-11T11:19:49;2.25;;;1.40;;
47433;SDS011;33184;48.774;8.918;2022-11-11T11:25:52;5.13;;;1.80;;
47433;SDS011;33184;48.774;8.918;2022-11-11T11:31:39;9.27;;;1.50;;
47433;SDS011;33184;48.774;8.918;2022-11-11T11:37:21;7.53;;;2.22;;
47433;SDS011;33184;48.774;8.918;2022-11-11T11:43:01;7.70;;;1.58;;
47433;SDS011;33184;48.774;8.918;2022-11-11T12:18:39;3.97;;;1.35;;
47433;SDS011;33184;48.774;8.918;2022-11-11T12:30:27;4.50;;;1.20;;
47433;SDS011;33184;48.774;8.918;2022-11-11T12:36:14;9.05;;;3.25;;
47433;SDS011;33184;48.774;8.918;2022-11-11T12:54:16;1.92;;;0.60;;
47433;SDS011;33184;48.774;8.918;2022-11-11T13:00:22;1.15;;;0.70;;
47433;SDS011;33184;48.774;8.918;2022-11-11T13:11:57;3.20;;;0.47;;
47433;SDS011;33184;48.774;8.918;2022-11-11T13:17:42;5.35;;;0.70;;
47433;SDS011;33184;48.774;8.918;2022-11-11T13:23:21;1.23;;;0.60;;
47433;SDS011;33184;48.774;8.918;2022-11-11T13:41:23;3.40;;;0.40;;
47433;SDS011;33184;48.774;8.918;2022-11-11T13:47:10;1.50;;;0.47;;
47433;SDS011;33184;48.774;8.918;2022-11-11T13:58:43;2.15;;;0.80;;
47433;SDS011;33184;48.774;8.918;2022-11-11T14:04:26;1.10;;;0.65;;
47433;SDS011;33184;48.774;8.918;2022-11-11T14:10:06;2.33;;;0.90;;
47433;SDS011;33184;48.774;8.918;2022-11-11T14:15:48;1.92;;;0.90;;
47433;SDS011;33184;48.774;8.918;2022-11-11T14:21:52;2.88;;;1.20;;
47433;SDS011;33184;48.774;8.918;2022-11-11T14:27:32;3.45;;;1.00;;
47433;SDS011;33184;48.774;8.918;2022-11-11T14:44:55;2.30;;;1.50;;
47433;SDS011;33184;48.774;8.918;2022-11-11T14:56:13;5.97;;;1.08;;
47433;SDS011;33184;48.774;8.918;2022-11-11T15:01:55;2.25;;;1.33;;
47433;SDS011;33184;48.774;8.918;2022-11-11T15:07:41;7.07;;;1.50;;
47433;SDS011;33184;48.774;8.918;2022-11-11T15:37:14;8.90;;;3.50;;
47433;SDS011;33184;48.774;8.918;2022-11-11T15:42:55;10.30;;;4.90;;
47433;SDS011;33184;48.774;8.918;2022-11-11T15:48:38;11.77;;;4.15;;
47433;SDS011;33184;48.774;8.918;2022-11-11T15:54:20;12.27;;;3.90;;
47433;SDS011;33184;48.774;8.918;2022-11-11T16:00:01;10.90;;;4.28;;
47433;SDS011;33184;48.774;8.918;2022-11-11T16:05:57;8.57;;;4.10;;
47433;SDS011;33184;48.774;8.918;2022-11-11T16:11:38;9.73;;;4.20;;
47433;SDS011;33184;48.774;8.918;2022-11-11T16:17:18;7.35;;;4.55;;
47433;SDS011;33184;48.774;8.918;2022-11-11T16:22:58;12.20;;;6.65;;
47433;SDS011;33184;48.774;8.918;2022-11-11T16:28:41;6.78;;;3.30;;
47433;SDS011;33184;48.774;8.918;2022-11-11T16:40:24;10.27;;;4.57;;
47433;SDS011;33184;48.774;8.918;2022-11-11T16:46:15;7.15;;;4.40;;
47433;SDS011;33184;48.774;8.918;2022-11-11T16:52:14;21.85;;;11.07;;
47433;SDS011;33184;48.774;8.918;2022-11-11T16:57:57;49.58;;;24.88;;
47433;SDS011;33184;48.774;8.918;2022-11-11T17:03:47;14.07;;;6.75;;
47433;SDS011;33184;48.774;8.918;2022-11-11T17:15:20;11.23;;;7.38;;
47433;SDS011;33184;48.774;8.918;2022-11-11T17:21:00;16.98;;;9.77;;
47433;SDS011;33184;48.774;8.918;2022-11-11T17:26:40;22.10;;;9.07;;
47433;SDS011;33184;48.774;8.918;2022-11-11T17:32:19;11.15;;;5.43;;
47433;SDS011;33184;48.774;8.918;2022-11-11T17:44:46;8.27;;;6.30;;
47433;SDS011;33184;48.774;8.918;2022-11-11T17:50:34;15.55;;;6.65;;
47433;SDS011;33184;48.774;8.918;2022-11-11T17:57:05;17.08;;;7.38;;
47433;SDS011;33184;48.774;8.918;2022-11-11T18:03:34;12.60;;;6.72;;
47433;SDS011;33184;48.774;8.918;2022-11-11T18:09:18;12.23;;;6.97;;
47433;SDS011;33184;48.774;8.918;2022-11-11T18:14:56;18.08;;;6.05;;
47433;SDS011;33184;48.774;8.918;2022-11-11T18:20:43;12.18;;;6.50;;
47433;SDS011;33184;48.774;8.918;2022-11-11T18:26:22;10.98;;;5.60;;
47433;SDS011;33184;48.774;8.918;2022-11-11T18:32:01;12.30;;;6.75;;
47433;SDS011;33184;48.774;8.918;2022-11-11T18:37:41;12.97;;;6.33;;
47433;SDS011;33184;48.774;8.918;2022-11-11T18:43:20;13.80;;;7.57;;
47433;SDS011;33184;48.774;8.918;2022-11-11T18:49:00;9.75;;;6.15;;
47433;SDS011;33184;48.774;8.918;2022-11-11T18:54:42;12.48;;;7.28;;
47433;SDS011;33184;48.774;8.918;2022-11-11T19:00:21;16.70;;;7.20;;
47433;SDS011;33184;48.774;8.918;2022-11-11T19:06:00;7.63;;;5.65;;
47433;SDS011;33184;48.774;8.918;2022-11-11T19:11:45;14.00;;;5.93;;
47433;SDS011;33184;48.774;8.918;2022-11-11T19:17:25;14.80;;;5.47;;
47433;SDS011;33184;48.774;8.918;2022-11-11T19:23:03;9.90;;;6.03;;
47433;SDS011;33184;48.774;8.918;2022-11-11T19:28:43;8.67;;;6.20;;
47433;SDS011;33184;48.774;8.918;2022-11-11T19:34:23;19.13;;;11.10;;
47433;SDS011;33184;48.774;8.918;2022-11-11T19:40:02;26.33;;;12.10;;
47433;SDS011;33184;48.774;8.918;2022-11-11T19:45:41;20.97;;;12.47;;
47433;SDS011;33184;48.774;8.918;2022-11-11T19:51:22;18.50;;;10.47;;
47433;SDS011;33184;48.774;8.918;2022-11-11T19:57:02;15.40;;;10.90;;
47433;SDS011;33184;48.774;8.918;2022-11-11T20:02:42;16.73;;;9.53;;
47433;SDS011;33184;48.774;8.918;2022-11-11T20:08:21;21.53;;;10.67;;
47433;SDS011;33184;48.774;8.918;2022-11-11T20:14:01;16.53;;;10.17;;
47433;SDS011;33184;48.774;8.918;2022-11-11T20:19:42;18.73;;;11.77;;
47433;SDS011;33184;48.774;8.918;2022-11-11T20:25:22;13.77;;;10.40;;
47433;SDS011;33184;48.774;8.918;2022-11-11T20:31:19;12.17;;;9.90;;
47433;SDS011;33184;48.774;8.918;2022-11-11T20:36:59;15.67;;;9.77;;
47433;SDS011;33184;48.774;8.918;2022-11-11T20:42:38;15.13;;;8.63;;
47433;SDS011;33184;48.774;8.918;2022-11-11T20:48:17;14.23;;;9.30;;
47433;SDS011;33184;48.774;8.918;2022-11-11T20:53:57;17.43;;;10.87;;
47433;SDS011;33184;48.774;8.918;2022-11-11T20:59:37;15.57;;;8.77;;
47433;SDS011;33184;48.774;8.918;2022-11-11T21:05:16;14.90;;;11.63;;
47433;SDS011;33184;48.774;8.918;2022-11-11T21:10:56;20.40;;;11.80;;
47433;SDS011;33184;48.774;8.918;2022-11-11T21:16:36;13.33;;;10.50;;
47433;SDS011;33184;48.774;8.918;2022-11-11T21:22:14;16.30;;;11.30;;
47433;SDS011;33184;48.774;8.918;2022-11-11T21:27:53;15.37;;;10.83;;
47433;SDS011;33184;48.774;8.918;2022-11-11T21:33:32;13.17;;;9.23;;
47433;SDS011;33184;48.774;8.918;2022-11-11T21:39:11;12.87;;;8.53;;
47433;SDS011;33184;48.774;8.918;2022-11-11T21:44:50;11.63;;;8.83;;
47433;SDS011;33184;48.774;8.918;2022-11-11T21:50:30;12.70;;;9.70;;
47433;SDS011;33184;48.774;8.918;2022-11-11T21:56:10;14.70;;;9.63;;
47433;SDS011;33184;48.774;8.918;2022-11-11T22:01:50;15.07;;;9.33;;
47433;SDS011;33184;48.774;8.918;2022-11-11T22:07:29;14.53;;;10.73;;
47433;SDS011;33184;48.774;8.918;2022-11-11T22:13:08;15.17;;;9.47;;
47433;SDS011;33184;48.774;8.918;2022-11-11T22:18:51;21.03;;;11.00;;
47433;SDS011;33184;48.774;8.918;2022-11-11T22:24:41;14.87;;;9.60;;
47433;SDS011;33184;48.774;8.918;2022-11-11T22:30:20;15.80;;;10.13;;
47433;SDS011;33184;48.774;8.918;2022-11-11T22:35:59;17.73;;;10.83;;
47433;SDS011;33184;48.774;8.918;2022-11-11T22:41:41;15.80;;;10.43;;
47433;SDS011;33184;48.774;8.918;2022-11-11T22:47:20;15.77;;;10.27;;
47433;SDS011;33184;48.774;8.918;2022-11-11T22:52:59;16.40;;;10.40;;
47433;SDS011;33184;48.774;8.918;2022-11-11T22:58:39;16.33;;;9.53;;
47433;SDS011;33184;48.774;8.918;2022-11-11T23:04:22;15.60;;;10.03;;
47433;SDS011;33184;48.774;8.918;2022-11-11T23:10:01;15.40;;;9.40;;
47433;SDS011;33184;48.774;8.918;2022-11-11T23:15:40;13.97;;;10.63;;
47433;SDS011;33184;48.774;8.918;2022-11-11T23:21:29;15.03;;;9.90;;
47433;SDS011;33184;48.774;8.918;2022-11-11T23:27:08;10.67;;;8.57;;
47433;SDS011;33184;48.774;8.918;2022-11-11T23:32:51;8.03;;;6.80;;
47433;SDS011;33184;48.774;8.918;2022-11-11T23:38:30;10.70;;;7.03;;
47433;SDS011;33184;48.774;8.918;2022-11-11T23:44:10;9.87;;;7.97;;
47433;SDS011;33184;48.774;8.918;2022-11-11T23:49:49;6.60;;;5.73;;
47433;SDS011;33184;48.774;8.918;2022-11-11T23:55:27;5.63;;;4.87;;
